Burns Pinion Ridge Reserve, California Weather observations

Data are for 10 minute period ending at time listed.
 Day   Time   Solar   Ave.   Ave.  Ave.  Vector  Max.   Baro.   Total    
  of    of     Rad.   Air    Rel.  Wind   Wind   Wind  Press.  Precip.   
Year   Day            Temp.  Hum.  Speed  Dir.   Gust                    
2015   (PST)  Kw/m2    F      %     mph   deg.    mph    mb.     in.     
-------------------------------------------------------------------------
 114    0:00   0.00   47.8    71    5.7   191     8.6   870.3    0.00 
 114    0:10   0.00   47.1    72    5.8   174     7.7   870.2    0.00 
 114    0:20   0.00   46.9    73    5.0   200     7.2   870.1    0.00 
 114    0:30   0.00   47.2    72    5.2   202     7.5   870.0    0.00 
 114    0:40   0.00   47.2    72    5.0   206     6.7   869.9    0.00 
 114    0:50   0.00   46.3    73    4.8   185     6.4   869.7    0.00 
 114    1:00   0.00   45.9    74    5.2   185     6.7   869.6    0.00 
 114    1:10   0.00   45.5    75    4.3   186     6.1   869.6    0.00 
 114    1:20   0.00   45.6    75    5.0   197     6.6   869.6    0.00 
 114    1:30   0.00   46.4    73    6.5   186     9.8   869.6    0.00 
 114    1:40   0.00   46.8    72    7.3   197    10.5   869.6    0.00 
 114    1:50   0.00   47.2    72    9.6   201    12.4   869.7    0.00 
 114    2:00   0.00   47.2    73    9.6   203    12.9   869.8    0.00 
 114    2:10   0.00   47.0    74    8.2   199    11.7   869.8    0.00 
 114    2:20   0.00   46.8    75    6.7   195    10.2   869.9    0.00 
 114    2:30   0.00   46.3    76    6.4   198     9.6   869.9    0.00 
 114    2:40   0.00   46.3    76    6.2   191    10.1   869.9    0.00 
 114    2:50   0.00   45.8    77    6.6   180     9.1   869.9    0.00 
 114    3:00   0.00   46.3    76    8.2   207    11.8   870.0    0.00 
 114    3:10   0.00   46.7    74    8.4   210    12.1   870.0    0.00 
 114    3:20   0.00   46.5    75    6.4   211    10.8   870.1    0.00 
 114    3:30   0.00   46.2    76    7.6   211    11.0   870.1    0.00 
 114    3:40   0.00   46.2    76    8.1   208    11.4   870.1    0.00 
 114    3:50   0.00   46.0    76    6.2   200     9.1   870.0    0.00 
 114    4:00   0.00   45.8    77    7.3   198    10.4   870.0    0.00 
 114    4:10   0.00   46.2    75    7.4   207    10.8   870.1    0.00 
 114    4:20   0.00   46.5    74    9.4   206    11.6   870.1    0.00 
 114    4:30   0.00   46.5    74    9.8   207    13.7   870.2    0.00 
 114    4:40   0.00   46.4    75    8.5   206    11.6   870.3    0.00 
 114    4:50   0.00   46.3    75    9.1   208    12.1   870.3    0.00 
 114    5:00   0.00   46.3    75    9.1   208    12.3   870.4    0.00 
 114    5:10   0.00   46.1    76    6.4   211    11.5   870.5    0.00 
 114    5:20   0.01   46.1    75    7.3   207    10.4   870.5    0.00 
 114    5:30   0.02   46.6    74    8.5   202    11.6   870.6    0.00 
 114    5:40   0.03   46.9    72    8.3   211    11.3   870.7    0.00 
 114    5:50   0.03   47.0    72    9.2   210    11.6   870.8    0.00 
 114    6:00   0.07   47.4    72    8.2   206    12.1   870.9    0.00 
 114    6:10   0.14   49.2    68    6.1   196    10.1   871.0    0.00 
 114    6:20   0.18   49.8    67    6.5   205    10.0   871.2    0.00 
 114    6:30   0.22   50.6    66    6.7   205     9.9   871.3    0.00 
 114    6:40   0.24   51.5    64    7.5   186    10.6   871.2    0.00 
 114    6:50   0.29   52.6    62    7.9   181    12.7   871.2    0.00 
 114    7:00   0.33   52.8    61    6.9   188    10.4   871.3    0.00 
 114    7:10   0.38   52.9    61    7.9   196    14.5   871.4    0.00 
 114    7:20   0.43   53.1    61    8.4   196    14.8   871.4    0.00 
 114    7:30   0.55   53.8    58    8.7   210    14.8   871.5    0.00 
 114    7:40   0.53   53.8    59   10.0   200    16.1   871.5    0.00 
 114    7:50   0.60   54.0    59    9.9   207    17.1   871.5    0.00 
 114    8:00   0.66   55.5    56    8.6   203    14.0   871.6    0.00 
 114    8:10   0.63   56.1    54    7.7   197    13.2   871.6    0.00 
 114    8:20   0.62   55.8    55    9.6   197    15.9   871.6    0.00 
 114    8:30   0.77   55.6    56    8.9   204    14.7   871.6    0.00 
 114    8:40   0.78   57.6    52    8.2   196    15.5   871.7    0.00 
 114    8:50   0.46   54.8    57   10.3   212    16.3   872.0    0.00 
 114    9:00   0.49   55.5    56    8.9   210    15.8   872.0    0.00 
 114    9:10   0.53   54.4    58    8.6   208    15.5   872.0    0.00 
 114    9:20   0.80   57.3    52    8.1   208    14.8   872.0    0.00 
 114    9:30   0.80   58.5    50    7.9   209    16.5   872.0    0.00 
 114    9:40   0.88   58.8    49    8.6   205    15.4   872.0    0.00 
 114    9:50   0.83   59.2    48    8.0   196    15.3   872.1    0.00 
 114   10:00   0.91   59.5    47    8.7   210    14.7   872.0    0.00 
 114   10:10   0.96   59.8    47    9.4   213    15.9   872.1    0.00 
 114   10:20   0.94   59.3    48    9.3   210    15.7   872.0    0.00 
 114   10:30   0.95   60.9    44    7.7   189    15.0   872.0    0.00 
 114   10:40   0.98   61.6    43    9.7   182    18.0   872.0    0.00 
 114   10:50   1.00   62.3    42    7.7   203    14.5   872.0    0.00 
 114   11:00   1.03   63.6    41   11.4   144    19.1   872.0    0.00 
 114   11:10   0.53   63.2    41    9.5   161    17.8   872.1    0.00 
 114   11:20   0.99   62.8    42    9.3   157    16.1   872.1    0.00 
 114   11:30   0.44   62.0    44    7.8   205    17.1   872.1    0.00 
 114   11:40   0.75   59.6    48    8.9   216    15.5   872.0    0.00 
 114   11:50   1.16   63.0    42    7.5   206    16.4   871.9    0.00 
 114   12:00   0.84   63.9    40    7.4   207    13.4   871.9    0.00 
 114   12:10   0.82   62.2    43    9.0   203    15.4   871.9    0.00 
 114   12:20   1.08   63.0    42    8.6   213    15.8   871.9    0.00 
 114   12:30   1.11   62.7    44   11.1   214    20.2   872.0    0.00 
 114   12:40   1.01   62.3    45    9.4   190    16.4   872.0    0.00 
 114   12:50   1.02   63.0    43    8.7   199    16.7   872.0    0.00 
 114   13:00   1.00   61.9    45    8.6   198    15.3   872.0    0.00 
 114   13:10   0.97   63.4    42    8.6   185    17.1   871.9    0.00 
 114   13:20   0.96   64.1    41    8.9   168    18.6   871.9    0.00 
 114   13:30   0.92   63.8    42    8.0   181    16.1   871.9    0.00 
 114   13:40   0.90   63.8    42   10.2   163    22.1   871.8    0.00 
 114   13:50   0.87   63.4    43    7.3   182    15.3   871.7    0.00 
 114   14:00   0.84   62.7    45    7.9   170    17.5   871.5    0.00 
 114   14:10   0.82   63.7    43    6.7   173    16.1   871.3    0.00 
 114   14:20   0.80   63.6    43    7.9   172    19.8   871.3    0.00 
 114   14:30   0.77   63.1    44    7.2   172    17.7   871.2    0.00 
 114   14:40   0.74   63.3    43    8.6   169    18.3   871.2    0.00 
 114   14:50   0.71   63.0    43    9.1   201    18.9   871.0    0.00 
 114   15:00   0.68   61.3    46    9.7   192    19.6   871.0    0.00 
 114   15:10   0.65   62.2    44    9.7   171    19.4   870.9    0.00 
 114   15:20   0.62   61.3    46    7.9   197    15.6   870.9    0.00 
 114   15:30   0.59   61.4    47    8.7   186    18.0   870.8    0.00 
 114   15:40   0.56   61.4    47    7.7   189    16.1   870.8    0.00 
 114   15:50   0.52   60.3    49    9.4   202    17.6   870.7    0.00 
 114   16:00   0.47   60.5    49    7.8   184    16.1   870.7    0.00 
 114   16:10   0.44   59.7    50    9.2   169    19.7   870.6    0.00 
 114   16:20   0.41   58.5    52   10.7   205    19.4   870.7    0.00 
 114   16:30   0.38   57.7    54   10.4   190    18.0   870.6    0.00 
 114   16:40   0.33   58.4    52    9.1   179    16.1   870.5    0.00 
 114   16:50   0.30   57.5    54    9.7   207    18.7   870.4    0.00 
 114   17:00   0.26   57.0    55   10.8   207    17.0   870.3    0.00 
 114   17:10   0.22   57.3    54    9.0   202    16.2   870.3    0.00 
 114   17:20   0.19   56.7    55    8.2   208    13.9   870.4    0.00 
 114   17:30   0.15   56.0    57   10.3   198    19.4   870.4    0.00 
 114   17:40   0.12   55.5    58    8.3   200    15.4   870.3    0.00 
 114   17:50   0.09   54.6    60    9.1   204    17.4   870.4    0.00 
 114   18:00   0.05   53.6    63    8.5   202    13.9   870.5    0.00 
 114   18:10   0.01   51.9    68    8.6   202    16.8   870.6    0.00 
 114   18:20   0.01   50.8    71   10.5   204    16.7   870.5    0.00 
 114   18:30   0.00   50.5    72    7.7   197    14.9   870.6    0.00 
 114   18:40   0.00   50.1    73    8.8   180    13.5   870.7    0.00 
 114   18:50   0.00   49.4    76    9.3   192    17.3   870.8    0.00 
 114   19:00   0.00   48.8    78   10.7   198    16.6   871.0    0.00 
 114   19:10   0.00   48.7    78   10.4   207    15.7   871.0    0.00 
 114   19:20   0.00   48.6    78   10.5   204    14.0   871.1    0.00 
 114   19:30   0.00   48.6    78   11.7   206    17.0   871.2    0.00 
 114   19:40   0.00   48.6    77   10.0   207    14.8   871.2    0.00 
 114   19:50   0.00   48.6    77    9.4   206    13.4   871.3    0.00 
 114   20:00   0.00   48.4    78    8.6   211    11.9   871.4    0.00 
 114   20:10   0.00   48.3    78    7.9   212    12.1   871.4    0.00 
 114   20:20   0.00   48.3    78   10.1   206    14.0   871.6    0.00 
 114   20:30   0.00   47.9    80    9.3   198    15.5   871.7    0.00 
 114   20:40   0.00   47.6    82   10.3   202    15.1   871.7    0.00 
 114   20:50   0.00   47.2    83    9.4   192    15.9   871.8    0.00 
 114   21:00   0.00   47.1    83    8.4   194    14.8   871.8    0.00 
 114   21:10   0.00   47.0    83    8.2   186    12.9   871.8    0.00 
 114   21:20   0.00   47.1    82    9.3   197    14.6   871.7    0.00 
 114   21:30   0.00   47.4    80    9.8   201    15.2   871.7    0.00 
 114   21:40   0.00   47.2    80    7.7   196    12.0   871.7    0.00 
 114   21:50   0.00   47.1    80    5.2   230    11.2   871.8    0.00 
 114   22:00   0.00   46.8    80    5.6   224    11.0   871.7    0.00 

Return to Burns Pinion Ridge Reserve graphs page.


Western Regional Climate Center,wrcc@dri.edu